sensor_id;sensor_type;location;lat;lon;timestamp;P1;durP1;ratioP1;P2;durP2;ratioP2
70369;SDS011;57790;51.356;-2.906;2022-07-23T00:00:06;16.00;;;2.30;;
70369;SDS011;57790;51.356;-2.906;2022-07-23T00:03:07;8.37;;;1.90;;
70369;SDS011;57790;51.356;-2.906;2022-07-23T00:06:08;8.85;;;1.80;;
70369;SDS011;57790;51.356;-2.906;2022-07-23T00:09:08;6.47;;;1.50;;
70369;SDS011;57790;51.356;-2.906;2022-07-23T00:12:09;7.33;;;1.80;;
70369;SDS011;57790;51.356;-2.906;2022-07-23T00:15:09;5.73;;;1.40;;
70369;SDS011;57790;51.356;-2.906;2022-07-23T00:18:10;5.75;;;1.75;;
70369;SDS011;57790;51.356;-2.906;2022-07-23T00:21:10;7.17;;;1.70;;
70369;SDS011;57790;51.356;-2.906;2022-07-23T00:24:10;7.67;;;2.03;;
70369;SDS011;57790;51.356;-2.906;2022-07-23T00:27:11;6.43;;;1.87;;
70369;SDS011;57790;51.356;-2.906;2022-07-23T00:30:12;7.10;;;1.63;;
70369;SDS011;57790;51.356;-2.906;2022-07-23T00:33:12;7.10;;;1.83;;
70369;SDS011;57790;51.356;-2.906;2022-07-23T00:36:13;8.43;;;2.10;;
70369;SDS011;57790;51.356;-2.906;2022-07-23T00:39:13;9.03;;;2.30;;
70369;SDS011;57790;51.356;-2.906;2022-07-23T00:42:14;9.43;;;2.50;;
70369;SDS011;57790;51.356;-2.906;2022-07-23T00:45:14;8.23;;;2.00;;
70369;SDS011;57790;51.356;-2.906;2022-07-23T00:48:14;7.10;;;2.20;;
70369;SDS011;57790;51.356;-2.906;2022-07-23T00:51:15;6.33;;;2.07;;
70369;SDS011;57790;51.356;-2.906;2022-07-23T00:54:16;6.50;;;1.83;;
70369;SDS011;57790;51.356;-2.906;2022-07-23T00:57:18;8.00;;;1.83;;
70369;SDS011;57790;51.356;-2.906;2022-07-23T01:00:18;6.10;;;1.50;;
70369;SDS011;57790;51.356;-2.906;2022-07-23T01:03:19;8.60;;;1.50;;
70369;SDS011;57790;51.356;-2.906;2022-07-23T01:06:19;7.27;;;1.60;;
70369;SDS011;57790;51.356;-2.906;2022-07-23T01:09:19;6.53;;;1.47;;
70369;SDS011;57790;51.356;-2.906;2022-07-23T01:12:20;6.40;;;1.50;;
70369;SDS011;57790;51.356;-2.906;2022-07-23T01:15:21;5.25;;;1.45;;
70369;SDS011;57790;51.356;-2.906;2022-07-23T01:18:21;6.27;;;1.70;;
70369;SDS011;57790;51.356;-2.906;2022-07-23T01:21:22;7.27;;;1.70;;
70369;SDS011;57790;51.356;-2.906;2022-07-23T01:24:22;7.57;;;1.90;;
70369;SDS011;57790;51.356;-2.906;2022-07-23T01:27:22;6.67;;;1.93;;
70369;SDS011;57790;51.356;-2.906;2022-07-23T01:30:23;7.47;;;2.50;;
70369;SDS011;57790;51.356;-2.906;2022-07-23T01:33:24;5.60;;;1.70;;
70369;SDS011;57790;51.356;-2.906;2022-07-23T01:36:24;6.53;;;1.50;;
70369;SDS011;57790;51.356;-2.906;2022-07-23T01:39:24;5.77;;;1.43;;
70369;SDS011;57790;51.356;-2.906;2022-07-23T01:42:25;5.17;;;1.50;;
70369;SDS011;57790;51.356;-2.906;2022-07-23T01:45:25;7.73;;;2.10;;
70369;SDS011;57790;51.356;-2.906;2022-07-23T01:48:26;7.22;;;1.92;;
70369;SDS011;57790;51.356;-2.906;2022-07-23T01:51:26;5.57;;;1.77;;
70369;SDS011;57790;51.356;-2.906;2022-07-23T01:54:27;7.00;;;2.57;;
70369;SDS011;57790;51.356;-2.906;2022-07-23T01:57:29;7.70;;;1.98;;
70369;SDS011;57790;51.356;-2.906;2022-07-23T02:00:29;5.60;;;1.77;;
70369;SDS011;57790;51.356;-2.906;2022-07-23T02:03:30;6.80;;;1.80;;
70369;SDS011;57790;51.356;-2.906;2022-07-23T02:06:30;7.07;;;2.10;;
70369;SDS011;57790;51.356;-2.906;2022-07-23T02:09:31;6.28;;;1.70;;
70369;SDS011;57790;51.356;-2.906;2022-07-23T02:12:32;6.83;;;1.80;;
70369;SDS011;57790;51.356;-2.906;2022-07-23T02:15:32;9.38;;;2.20;;
70369;SDS011;57790;51.356;-2.906;2022-07-23T02:18:32;6.17;;;1.73;;
70369;SDS011;57790;51.356;-2.906;2022-07-23T02:21:33;6.63;;;1.80;;
70369;SDS011;57790;51.356;-2.906;2022-07-23T02:24:33;8.60;;;1.70;;
70369;SDS011;57790;51.356;-2.906;2022-07-23T02:27:34;5.77;;;1.50;;
70369;SDS011;57790;51.356;-2.906;2022-07-23T02:30:35;6.03;;;1.70;;
70369;SDS011;57790;51.356;-2.906;2022-07-23T02:33:37;5.65;;;1.80;;
70369;SDS011;57790;51.356;-2.906;2022-07-23T02:36:38;6.23;;;1.73;;
70369;SDS011;57790;51.356;-2.906;2022-07-23T02:39:39;6.90;;;1.80;;
70369;SDS011;57790;51.356;-2.906;2022-07-23T02:42:40;8.05;;;1.90;;
70369;SDS011;57790;51.356;-2.906;2022-07-23T02:45:40;5.70;;;1.80;;
70369;SDS011;57790;51.356;-2.906;2022-07-23T02:48:41;6.10;;;1.83;;
70369;SDS011;57790;51.356;-2.906;2022-07-23T02:51:41;6.70;;;2.00;;
70369;SDS011;57790;51.356;-2.906;2022-07-23T02:54:42;6.43;;;1.88;;
70369;SDS011;57790;51.356;-2.906;2022-07-23T02:57:42;7.60;;;1.90;;
70369;SDS011;57790;51.356;-2.906;2022-07-23T03:00:43;6.33;;;1.90;;
70369;SDS011;57790;51.356;-2.906;2022-07-23T03:03:43;7.73;;;1.93;;
70369;SDS011;57790;51.356;-2.906;2022-07-23T03:06:43;8.37;;;2.20;;
70369;SDS011;57790;51.356;-2.906;2022-07-23T03:09:44;7.23;;;2.07;;
70369;SDS011;57790;51.356;-2.906;2022-07-23T03:12:44;9.93;;;2.15;;
70369;SDS011;57790;51.356;-2.906;2022-07-23T03:15:44;6.13;;;1.83;;
70369;SDS011;57790;51.356;-2.906;2022-07-23T03:18:45;6.27;;;1.93;;
70369;SDS011;57790;51.356;-2.906;2022-07-23T03:21:45;6.43;;;1.60;;
70369;SDS011;57790;51.356;-2.906;2022-07-23T03:24:46;6.60;;;1.93;;
70369;SDS011;57790;51.356;-2.906;2022-07-23T03:27:55;6.55;;;2.00;;
70369;SDS011;57790;51.356;-2.906;2022-07-23T03:30:55;5.93;;;1.80;;
70369;SDS011;57790;51.356;-2.906;2022-07-23T03:33:56;6.50;;;1.80;;
70369;SDS011;57790;51.356;-2.906;2022-07-23T03:36:57;5.43;;;1.80;;
70369;SDS011;57790;51.356;-2.906;2022-07-23T03:39:58;6.53;;;1.80;;
70369;SDS011;57790;51.356;-2.906;2022-07-23T03:42:58;7.67;;;1.57;;
70369;SDS011;57790;51.356;-2.906;2022-07-23T03:45:59;7.47;;;2.00;;
70369;SDS011;57790;51.356;-2.906;2022-07-23T03:48:59;9.47;;;2.00;;
70369;SDS011;57790;51.356;-2.906;2022-07-23T03:51:59;6.40;;;2.10;;
70369;SDS011;57790;51.356;-2.906;2022-07-23T03:55:01;7.83;;;2.27;;
70369;SDS011;57790;51.356;-2.906;2022-07-23T03:58:02;6.35;;;2.25;;
70369;SDS011;57790;51.356;-2.906;2022-07-23T04:01:02;8.13;;;2.30;;
70369;SDS011;57790;51.356;-2.906;2022-07-23T04:04:02;7.10;;;2.37;;
70369;SDS011;57790;51.356;-2.906;2022-07-23T04:07:03;7.78;;;2.13;;
70369;SDS011;57790;51.356;-2.906;2022-07-23T04:10:04;7.17;;;2.20;;
70369;SDS011;57790;51.356;-2.906;2022-07-23T04:13:05;9.40;;;2.17;;
70369;SDS011;57790;51.356;-2.906;2022-07-23T04:16:05;7.93;;;2.57;;
70369;SDS011;57790;51.356;-2.906;2022-07-23T04:19:06;7.03;;;2.13;;
70369;SDS011;57790;51.356;-2.906;2022-07-23T04:22:07;7.63;;;2.80;;
70369;SDS011;57790;51.356;-2.906;2022-07-23T04:25:07;9.50;;;2.90;;
70369;SDS011;57790;51.356;-2.906;2022-07-23T04:28:08;6.50;;;2.10;;
70369;SDS011;57790;51.356;-2.906;2022-07-23T04:31:09;7.88;;;2.63;;
70369;SDS011;57790;51.356;-2.906;2022-07-23T04:34:09;9.70;;;2.47;;
70369;SDS011;57790;51.356;-2.906;2022-07-23T04:37:09;9.17;;;2.40;;
70369;SDS011;57790;51.356;-2.906;2022-07-23T04:40:10;9.83;;;2.40;;
70369;SDS011;57790;51.356;-2.906;2022-07-23T04:43:12;8.63;;;2.50;;
70369;SDS011;57790;51.356;-2.906;2022-07-23T04:46:12;7.57;;;2.47;;
70369;SDS011;57790;51.356;-2.906;2022-07-23T04:49:13;8.55;;;2.20;;
70369;SDS011;57790;51.356;-2.906;2022-07-23T04:52:13;8.30;;;2.20;;
70369;SDS011;57790;51.356;-2.906;2022-07-23T04:55:15;8.18;;;2.33;;
70369;SDS011;57790;51.356;-2.906;2022-07-23T04:58:16;6.50;;;2.10;;
70369;SDS011;57790;51.356;-2.906;2022-07-23T05:01:16;8.63;;;2.20;;
70369;SDS011;57790;51.356;-2.906;2022-07-23T05:04:16;6.43;;;2.00;;
70369;SDS011;57790;51.356;-2.906;2022-07-23T05:07:17;8.03;;;2.30;;
70369;SDS011;57790;51.356;-2.906;2022-07-23T05:10:17;7.13;;;2.23;;
70369;SDS011;57790;51.356;-2.906;2022-07-23T05:13:18;7.00;;;1.87;;
70369;SDS011;57790;51.356;-2.906;2022-07-23T05:16:18;5.97;;;1.93;;
70369;SDS011;57790;51.356;-2.906;2022-07-23T05:19:19;5.93;;;1.70;;
70369;SDS011;57790;51.356;-2.906;2022-07-23T05:22:19;7.83;;;1.90;;
70369;SDS011;57790;51.356;-2.906;2022-07-23T05:25:19;7.80;;;1.97;;
70369;SDS011;57790;51.356;-2.906;2022-07-23T05:28:20;6.55;;;2.17;;
70369;SDS011;57790;51.356;-2.906;2022-07-23T05:31:20;5.53;;;1.80;;
70369;SDS011;57790;51.356;-2.906;2022-07-23T05:34:21;7.10;;;2.03;;
70369;SDS011;57790;51.356;-2.906;2022-07-23T05:37:21;6.97;;;2.07;;
70369;SDS011;57790;51.356;-2.906;2022-07-23T05:40:22;7.47;;;1.90;;
70369;SDS011;57790;51.356;-2.906;2022-07-23T05:43:22;4.60;;;1.85;;
70369;SDS011;57790;51.356;-2.906;2022-07-23T05:46:23;7.13;;;1.80;;
70369;SDS011;57790;51.356;-2.906;2022-07-23T05:49:24;7.50;;;1.73;;
70369;SDS011;57790;51.356;-2.906;2022-07-23T05:52:24;5.80;;;2.00;;
70369;SDS011;57790;51.356;-2.906;2022-07-23T05:55:25;6.30;;;1.97;;
70369;SDS011;57790;51.356;-2.906;2022-07-23T05:58:25;5.88;;;1.92;;
70369;SDS011;57790;51.356;-2.906;2022-07-23T06:01:26;9.70;;;2.03;;
70369;SDS011;57790;51.356;-2.906;2022-07-23T06:04:26;6.30;;;1.77;;
70369;SDS011;57790;51.356;-2.906;2022-07-23T06:07:27;5.80;;;1.87;;
70369;SDS011;57790;51.356;-2.906;2022-07-23T06:10:27;6.60;;;2.03;;
70369;SDS011;57790;51.356;-2.906;2022-07-23T06:13:28;6.83;;;2.10;;
70369;SDS011;57790;51.356;-2.906;2022-07-23T06:16:28;6.23;;;1.63;;
70369;SDS011;57790;51.356;-2.906;2022-07-23T06:19:29;6.97;;;1.70;;
70369;SDS011;57790;51.356;-2.906;2022-07-23T06:22:29;8.03;;;1.87;;
70369;SDS011;57790;51.356;-2.906;2022-07-23T06:25:29;6.97;;;2.10;;
70369;SDS011;57790;51.356;-2.906;2022-07-23T06:28:30;7.73;;;1.93;;
70369;SDS011;57790;51.356;-2.906;2022-07-23T06:31:30;5.87;;;1.90;;
70369;SDS011;57790;51.356;-2.906;2022-07-23T06:34:31;6.43;;;2.00;;
70369;SDS011;57790;51.356;-2.906;2022-07-23T06:37:31;6.30;;;1.90;;
70369;SDS011;57790;51.356;-2.906;2022-07-23T06:40:31;6.30;;;1.83;;
70369;SDS011;57790;51.356;-2.906;2022-07-23T06:43:32;6.45;;;1.80;;
70369;SDS011;57790;51.356;-2.906;2022-07-23T06:46:32;7.13;;;1.80;;
70369;SDS011;57790;51.356;-2.906;2022-07-23T06:49:33;7.07;;;1.77;;
70369;SDS011;57790;51.356;-2.906;2022-07-23T06:52:34;6.73;;;2.00;;
70369;SDS011;57790;51.356;-2.906;2022-07-23T06:55:34;6.03;;;2.10;;
70369;SDS011;57790;51.356;-2.906;2022-07-23T06:58:38;6.15;;;1.65;;
70369;SDS011;57790;51.356;-2.906;2022-07-23T07:01:38;5.20;;;1.70;;
70369;SDS011;57790;51.356;-2.906;2022-07-23T07:04:39;10.70;;;2.00;;
70369;SDS011;57790;51.356;-2.906;2022-07-23T07:07:39;6.40;;;2.00;;
70369;SDS011;57790;51.356;-2.906;2022-07-23T07:10:39;7.80;;;2.10;;
70369;SDS011;57790;51.356;-2.906;2022-07-23T07:13:40;8.00;;;2.10;;
70369;SDS011;57790;51.356;-2.906;2022-07-23T07:16:40;6.70;;;1.90;;
70369;SDS011;57790;51.356;-2.906;2022-07-23T07:19:41;6.97;;;2.07;;
70369;SDS011;57790;51.356;-2.906;2022-07-23T07:22:41;9.97;;;2.17;;
70369;SDS011;57790;51.356;-2.906;2022-07-23T07:25:42;8.10;;;2.00;;
70369;SDS011;57790;51.356;-2.906;2022-07-23T07:28:42;6.30;;;1.90;;
70369;SDS011;57790;51.356;-2.906;2022-07-23T07:31:42;9.20;;;2.10;;
70369;SDS011;57790;51.356;-2.906;2022-07-23T07:34:43;8.60;;;2.03;;
70369;SDS011;57790;51.356;-2.906;2022-07-23T07:37:43;7.03;;;1.97;;
70369;SDS011;57790;51.356;-2.906;2022-07-23T07:40:44;6.83;;;2.10;;
70369;SDS011;57790;51.356;-2.906;2022-07-23T07:43:44;9.07;;;2.57;;
70369;SDS011;57790;51.356;-2.906;2022-07-23T07:46:45;11.60;;;2.60;;
70369;SDS011;57790;51.356;-2.906;2022-07-23T07:49:45;11.23;;;2.63;;
70369;SDS011;57790;51.356;-2.906;2022-07-23T07:52:46;8.20;;;2.25;;
70369;SDS011;57790;51.356;-2.906;2022-07-23T07:55:46;7.57;;;2.33;;
70369;SDS011;57790;51.356;-2.906;2022-07-23T07:58:47;6.50;;;2.30;;
70369;SDS011;57790;51.356;-2.906;2022-07-23T08:01:47;8.87;;;2.80;;
70369;SDS011;57790;51.356;-2.906;2022-07-23T08:04:47;6.90;;;2.57;;
70369;SDS011;57790;51.356;-2.906;2022-07-23T08:07:48;8.65;;;2.30;;
70369;SDS011;57790;51.356;-2.906;2022-07-23T08:10:49;7.53;;;2.40;;
70369;SDS011;57790;51.356;-2.906;2022-07-23T08:13:49;11.30;;;2.28;;
70369;SDS011;57790;51.356;-2.906;2022-07-23T08:16:50;5.23;;;1.70;;
70369;SDS011;57790;51.356;-2.906;2022-07-23T08:19:50;6.83;;;1.90;;
70369;SDS011;57790;51.356;-2.906;2022-07-23T08:25:52;7.40;;;2.20;;
70369;SDS011;57790;51.356;-2.906;2022-07-23T08:28:53;7.50;;;2.10;;
70369;SDS011;57790;51.356;-2.906;2022-07-23T08:31:53;7.45;;;2.28;;
70369;SDS011;57790;51.356;-2.906;2022-07-23T08:34:53;6.53;;;1.80;;
70369;SDS011;57790;51.356;-2.906;2022-07-23T08:37:54;7.53;;;1.80;;
70369;SDS011;57790;51.356;-2.906;2022-07-23T08:40:56;6.88;;;1.60;;
70369;SDS011;57790;51.356;-2.906;2022-07-23T08:43:57;5.88;;;1.70;;
70369;SDS011;57790;51.356;-2.906;2022-07-23T08:47:01;4.53;;;1.20;;
70369;SDS011;57790;51.356;-2.906;2022-07-23T08:50:02;5.68;;;1.45;;
70369;SDS011;57790;51.356;-2.906;2022-07-23T08:53:05;6.15;;;1.63;;
70369;SDS011;57790;51.356;-2.906;2022-07-23T08:56:07;4.57;;;1.40;;
70369;SDS011;57790;51.356;-2.906;2022-07-23T08:59:08;6.57;;;1.40;;
70369;SDS011;57790;51.356;-2.906;2022-07-23T09:02:08;3.17;;;1.13;;
70369;SDS011;57790;51.356;-2.906;2022-07-23T09:05:09;7.13;;;1.23;;
70369;SDS011;57790;51.356;-2.906;2022-07-23T09:11:17;6.72;;;1.35;;
70369;SDS011;57790;51.356;-2.906;2022-07-23T09:14:20;6.33;;;1.40;;
70369;SDS011;57790;51.356;-2.906;2022-07-23T09:17:40;4.50;;;1.33;;
70369;SDS011;57790;51.356;-2.906;2022-07-23T09:20:43;7.07;;;1.60;;
70369;SDS011;57790;51.356;-2.906;2022-07-23T09:26:49;5.47;;;1.50;;
70369;SDS011;57790;51.356;-2.906;2022-07-23T09:29:55;4.80;;;1.30;;
70369;SDS011;57790;51.356;-2.906;2022-07-23T09:33:10;6.25;;;1.50;;
70369;SDS011;57790;51.356;-2.906;2022-07-23T09:36:10;4.72;;;1.60;;
70369;SDS011;57790;51.356;-2.906;2022-07-23T09:39:12;4.65;;;1.50;;
70369;SDS011;57790;51.356;-2.906;2022-07-23T09:42:15;5.63;;;1.58;;
70369;SDS011;57790;51.356;-2.906;2022-07-23T09:45:17;4.70;;;1.40;;
70369;SDS011;57790;51.356;-2.906;2022-07-23T09:48:17;6.60;;;1.60;;
70369;SDS011;57790;51.356;-2.906;2022-07-23T09:51:18;4.97;;;1.80;;
70369;SDS011;57790;51.356;-2.906;2022-07-23T09:54:39;6.57;;;1.60;;
70369;SDS011;57790;51.356;-2.906;2022-07-23T09:57:40;5.13;;;1.57;;
70369;SDS011;57790;51.356;-2.906;2022-07-23T10:00:43;5.82;;;1.63;;
70369;SDS011;57790;51.356;-2.906;2022-07-23T10:03:45;6.47;;;1.70;;
70369;SDS011;57790;51.356;-2.906;2022-07-23T10:06:46;6.83;;;2.00;;
70369;SDS011;57790;51.356;-2.906;2022-07-23T10:09:47;4.93;;;1.55;;
70369;SDS011;57790;51.356;-2.906;2022-07-23T10:12:50;7.10;;;1.60;;
70369;SDS011;57790;51.356;-2.906;2022-07-23T10:15:51;5.60;;;1.63;;
70369;SDS011;57790;51.356;-2.906;2022-07-23T10:18:52;4.85;;;1.55;;
70369;SDS011;57790;51.356;-2.906;2022-07-23T10:21:54;4.10;;;1.58;;
70369;SDS011;57790;51.356;-2.906;2022-07-23T10:28:37;6.30;;;1.60;;
70369;SDS011;57790;51.356;-2.906;2022-07-23T10:31:52;5.63;;;1.60;;
70369;SDS011;57790;51.356;-2.906;2022-07-23T10:35:07;6.75;;;1.60;;
70369;SDS011;57790;51.356;-2.906;2022-07-23T10:38:25;4.18;;;1.52;;
70369;SDS011;57790;51.356;-2.906;2022-07-23T10:41:34;6.25;;;1.90;;
70369;SDS011;57790;51.356;-2.906;2022-07-23T10:44:44;5.53;;;1.70;;
70369;SDS011;57790;51.356;-2.906;2022-07-23T10:47:47;5.05;;;1.70;;
70369;SDS011;57790;51.356;-2.906;2022-07-23T10:54:21;4.88;;;1.40;;
70369;SDS011;57790;51.356;-2.906;2022-07-23T10:57:25;5.80;;;1.80;;
70369;SDS011;57790;51.356;-2.906;2022-07-23T11:00:27;5.27;;;1.60;;
70369;SDS011;57790;51.356;-2.906;2022-07-23T11:03:31;5.43;;;1.55;;
70369;SDS011;57790;51.356;-2.906;2022-07-23T11:09:48;4.25;;;1.60;;
70369;SDS011;57790;51.356;-2.906;2022-07-23T11:12:48;4.90;;;1.40;;
70369;SDS011;57790;51.356;-2.906;2022-07-23T11:19:03;5.82;;;1.67;;
70369;SDS011;57790;51.356;-2.906;2022-07-23T11:22:05;5.10;;;1.65;;
70369;SDS011;57790;51.356;-2.906;2022-07-23T11:25:05;6.03;;;1.90;;
70369;SDS011;57790;51.356;-2.906;2022-07-23T11:28:10;4.93;;;1.75;;
70369;SDS011;57790;51.356;-2.906;2022-07-23T11:31:19;5.50;;;1.75;;
70369;SDS011;57790;51.356;-2.906;2022-07-23T11:40:40;4.60;;;1.40;;
70369;SDS011;57790;51.356;-2.906;2022-07-23T11:43:41;6.68;;;1.90;;
70369;SDS011;57790;51.356;-2.906;2022-07-23T11:46:53;7.27;;;2.00;;
70369;SDS011;57790;51.356;-2.906;2022-07-23T11:50:01;5.25;;;1.75;;
70369;SDS011;57790;51.356;-2.906;2022-07-23T11:53:04;6.50;;;1.90;;
70369;SDS011;57790;51.356;-2.906;2022-07-23T11:59:09;6.13;;;1.88;;
70369;SDS011;57790;51.356;-2.906;2022-07-23T12:02:09;5.70;;;2.03;;
70369;SDS011;57790;51.356;-2.906;2022-07-23T12:05:16;4.97;;;1.90;;
70369;SDS011;57790;51.356;-2.906;2022-07-23T12:08:18;7.60;;;2.00;;
70369;SDS011;57790;51.356;-2.906;2022-07-23T12:11:19;5.73;;;2.10;;
70369;SDS011;57790;51.356;-2.906;2022-07-23T12:14:20;6.13;;;1.83;;
70369;SDS011;57790;51.356;-2.906;2022-07-23T12:17:21;6.07;;;1.60;;
70369;SDS011;57790;51.356;-2.906;2022-07-23T12:20:30;8.88;;;2.10;;
70369;SDS011;57790;51.356;-2.906;2022-07-23T12:23:32;5.85;;;1.90;;
70369;SDS011;57790;51.356;-2.906;2022-07-23T12:26:32;5.80;;;1.70;;
70369;SDS011;57790;51.356;-2.906;2022-07-23T12:29:36;5.33;;;1.60;;
70369;SDS011;57790;51.356;-2.906;2022-07-23T12:32:42;3.85;;;1.38;;
70369;SDS011;57790;51.356;-2.906;2022-07-23T12:35:45;4.38;;;1.42;;
70369;SDS011;57790;51.356;-2.906;2022-07-23T12:38:47;4.15;;;1.50;;
70369;SDS011;57790;51.356;-2.906;2022-07-23T12:41:51;6.73;;;2.00;;
70369;SDS011;57790;51.356;-2.906;2022-07-23T12:45:03;6.72;;;2.22;;
70369;SDS011;57790;51.356;-2.906;2022-07-23T12:48:08;7.95;;;2.20;;
70369;SDS011;57790;51.356;-2.906;2022-07-23T12:51:16;7.35;;;2.35;;
70369;SDS011;57790;51.356;-2.906;2022-07-23T12:54:17;6.63;;;1.90;;
70369;SDS011;57790;51.356;-2.906;2022-07-23T12:57:18;8.03;;;2.40;;
70369;SDS011;57790;51.356;-2.906;2022-07-23T13:00:18;6.33;;;2.20;;
70369;SDS011;57790;51.356;-2.906;2022-07-23T13:03:27;7.80;;;2.40;;
70369;SDS011;57790;51.356;-2.906;2022-07-23T13:06:37;8.35;;;2.70;;
70369;SDS011;57790;51.356;-2.906;2022-07-23T13:09:38;9.15;;;2.88;;
70369;SDS011;57790;51.356;-2.906;2022-07-23T13:12:39;8.70;;;3.23;;
70369;SDS011;57790;51.356;-2.906;2022-07-23T13:15:39;8.10;;;2.40;;
70369;SDS011;57790;51.356;-2.906;2022-07-23T13:18:40;7.77;;;2.80;;
70369;SDS011;57790;51.356;-2.906;2022-07-23T13:21:40;7.70;;;2.80;;
70369;SDS011;57790;51.356;-2.906;2022-07-23T13:24:41;7.93;;;2.70;;
70369;SDS011;57790;51.356;-2.906;2022-07-23T13:27:41;8.50;;;2.80;;
70369;SDS011;57790;51.356;-2.906;2022-07-23T13:30:42;9.47;;;2.70;;
70369;SDS011;57790;51.356;-2.906;2022-07-23T13:33:43;7.60;;;2.60;;
70369;SDS011;57790;51.356;-2.906;2022-07-23T13:36:43;10.40;;;3.00;;
70369;SDS011;57790;51.356;-2.906;2022-07-23T13:39:44;8.97;;;2.83;;
70369;SDS011;57790;51.356;-2.906;2022-07-23T13:42:44;6.37;;;2.50;;
70369;SDS011;57790;51.356;-2.906;2022-07-23T13:45:45;9.35;;;2.78;;
70369;SDS011;57790;51.356;-2.906;2022-07-23T13:48:45;9.50;;;2.80;;
70369;SDS011;57790;51.356;-2.906;2022-07-23T13:51:46;9.17;;;3.23;;
70369;SDS011;57790;51.356;-2.906;2022-07-23T13:54:46;7.55;;;2.40;;
70369;SDS011;57790;51.356;-2.906;2022-07-23T13:57:49;9.43;;;2.40;;
70369;SDS011;57790;51.356;-2.906;2022-07-23T14:00:51;8.45;;;2.83;;
70369;SDS011;57790;51.356;-2.906;2022-07-23T14:03:53;9.23;;;2.83;;
70369;SDS011;57790;51.356;-2.906;2022-07-23T14:06:53;7.23;;;2.50;;
70369;SDS011;57790;51.356;-2.906;2022-07-23T14:09:54;10.07;;;3.07;;
70369;SDS011;57790;51.356;-2.906;2022-07-23T14:12:54;7.70;;;2.70;;
70369;SDS011;57790;51.356;-2.906;2022-07-23T14:15:58;7.90;;;2.83;;
70369;SDS011;57790;51.356;-2.906;2022-07-23T14:18:59;8.90;;;2.80;;
70369;SDS011;57790;51.356;-2.906;2022-07-23T14:21:59;8.90;;;2.85;;
70369;SDS011;57790;51.356;-2.906;2022-07-23T14:25:00;8.20;;;2.73;;
70369;SDS011;57790;51.356;-2.906;2022-07-23T14:28:00;8.40;;;2.90;;
70369;SDS011;57790;51.356;-2.906;2022-07-23T14:31:01;8.27;;;2.50;;
70369;SDS011;57790;51.356;-2.906;2022-07-23T14:34:01;8.30;;;2.50;;
70369;SDS011;57790;51.356;-2.906;2022-07-23T14:37:02;6.63;;;2.07;;
70369;SDS011;57790;51.356;-2.906;2022-07-23T14:40:02;7.35;;;2.13;;
70369;SDS011;57790;51.356;-2.906;2022-07-23T14:43:03;6.97;;;2.33;;
70369;SDS011;57790;51.356;-2.906;2022-07-23T14:46:04;7.93;;;2.35;;
70369;SDS011;57790;51.356;-2.906;2022-07-23T14:49:04;7.53;;;2.53;;
70369;SDS011;57790;51.356;-2.906;2022-07-23T14:52:05;6.33;;;2.03;;
70369;SDS011;57790;51.356;-2.906;2022-07-23T14:55:06;6.18;;;2.40;;
70369;SDS011;57790;51.356;-2.906;2022-07-23T14:58:07;7.97;;;2.80;;
70369;SDS011;57790;51.356;-2.906;2022-07-23T15:01:08;9.52;;;2.50;;
70369;SDS011;57790;51.356;-2.906;2022-07-23T15:04:08;9.60;;;2.70;;
70369;SDS011;57790;51.356;-2.906;2022-07-23T15:07:09;9.47;;;2.90;;
70369;SDS011;57790;51.356;-2.906;2022-07-23T15:10:09;10.10;;;2.73;;
70369;SDS011;57790;51.356;-2.906;2022-07-23T15:13:10;11.88;;;2.45;;
70369;SDS011;57790;51.356;-2.906;2022-07-23T15:16:10;9.63;;;2.57;;
70369;SDS011;57790;51.356;-2.906;2022-07-23T15:19:10;7.17;;;2.50;;
70369;SDS011;57790;51.356;-2.906;2022-07-23T15:22:11;8.30;;;2.77;;
70369;SDS011;57790;51.356;-2.906;2022-07-23T15:25:11;8.50;;;2.70;;
70369;SDS011;57790;51.356;-2.906;2022-07-23T15:28:11;8.40;;;2.50;;
70369;SDS011;57790;51.356;-2.906;2022-07-23T15:31:12;8.75;;;2.72;;
70369;SDS011;57790;51.356;-2.906;2022-07-23T15:34:12;7.73;;;2.80;;
70369;SDS011;57790;51.356;-2.906;2022-07-23T15:37:13;7.67;;;2.57;;
70369;SDS011;57790;51.356;-2.906;2022-07-23T15:40:13;9.50;;;2.73;;
70369;SDS011;57790;51.356;-2.906;2022-07-23T15:43:13;7.30;;;2.10;;
70369;SDS011;57790;51.356;-2.906;2022-07-23T15:46:14;6.97;;;2.20;;
70369;SDS011;57790;51.356;-2.906;2022-07-23T15:49:16;9.15;;;2.97;;
70369;SDS011;57790;51.356;-2.906;2022-07-23T15:52:16;8.80;;;2.63;;
70369;SDS011;57790;51.356;-2.906;2022-07-23T15:55:17;7.33;;;2.37;;
70369;SDS011;57790;51.356;-2.906;2022-07-23T15:58:17;10.20;;;2.50;;
70369;SDS011;57790;51.356;-2.906;2022-07-23T16:01:18;10.63;;;2.55;;
70369;SDS011;57790;51.356;-2.906;2022-07-23T16:04:18;7.33;;;2.40;;
70369;SDS011;57790;51.356;-2.906;2022-07-23T16:07:19;7.23;;;2.40;;
70369;SDS011;57790;51.356;-2.906;2022-07-23T16:10:20;9.23;;;2.78;;
70369;SDS011;57790;51.356;-2.906;2022-07-23T16:13:21;7.77;;;2.57;;
70369;SDS011;57790;51.356;-2.906;2022-07-23T16:16:21;9.33;;;2.70;;
70369;SDS011;57790;51.356;-2.906;2022-07-23T16:19:22;8.93;;;2.28;;
70369;SDS011;57790;51.356;-2.906;2022-07-23T16:22:22;9.83;;;2.60;;
70369;SDS011;57790;51.356;-2.906;2022-07-23T16:25:23;7.60;;;2.40;;
70369;SDS011;57790;51.356;-2.906;2022-07-23T16:28:23;8.63;;;2.55;;
70369;SDS011;57790;51.356;-2.906;2022-07-23T16:31:24;8.40;;;2.60;;
70369;SDS011;57790;51.356;-2.906;2022-07-23T16:34:26;9.07;;;2.53;;
70369;SDS011;57790;51.356;-2.906;2022-07-23T16:37:26;7.23;;;2.30;;
70369;SDS011;57790;51.356;-2.906;2022-07-23T16:40:27;8.53;;;2.67;;
70369;SDS011;57790;51.356;-2.906;2022-07-23T16:43:28;9.80;;;2.35;;
70369;SDS011;57790;51.356;-2.906;2022-07-23T16:46:28;7.20;;;2.20;;
70369;SDS011;57790;51.356;-2.906;2022-07-23T16:49:28;5.87;;;2.23;;
70369;SDS011;57790;51.356;-2.906;2022-07-23T16:52:29;7.33;;;2.50;;
70369;SDS011;57790;51.356;-2.906;2022-07-23T16:55:29;9.57;;;2.80;;
70369;SDS011;57790;51.356;-2.906;2022-07-23T16:58:30;7.73;;;2.40;;
70369;SDS011;57790;51.356;-2.906;2022-07-23T17:01:31;7.20;;;2.50;;
70369;SDS011;57790;51.356;-2.906;2022-07-23T17:04:31;8.07;;;2.40;;
70369;SDS011;57790;51.356;-2.906;2022-07-23T17:07:32;8.37;;;2.70;;
70369;SDS011;57790;51.356;-2.906;2022-07-23T17:10:32;8.80;;;2.30;;
70369;SDS011;57790;51.356;-2.906;2022-07-23T17:13:32;7.03;;;2.40;;
70369;SDS011;57790;51.356;-2.906;2022-07-23T17:16:33;9.52;;;2.58;;
70369;SDS011;57790;51.356;-2.906;2022-07-23T17:19:35;7.93;;;2.63;;
70369;SDS011;57790;51.356;-2.906;2022-07-23T17:22:35;7.43;;;2.28;;
70369;SDS011;57790;51.356;-2.906;2022-07-23T17:25:36;8.53;;;2.53;;
70369;SDS011;57790;51.356;-2.906;2022-07-23T17:28:36;9.03;;;2.60;;
70369;SDS011;57790;51.356;-2.906;2022-07-23T17:31:37;7.25;;;2.42;;
70369;SDS011;57790;51.356;-2.906;2022-07-23T17:34:37;8.80;;;2.50;;
70369;SDS011;57790;51.356;-2.906;2022-07-23T17:37:38;6.50;;;2.10;;
70369;SDS011;57790;51.356;-2.906;2022-07-23T17:40:38;8.60;;;2.67;;
70369;SDS011;57790;51.356;-2.906;2022-07-23T17:43:38;7.65;;;2.22;;
70369;SDS011;57790;51.356;-2.906;2022-07-23T17:46:39;6.80;;;1.90;;
70369;SDS011;57790;51.356;-2.906;2022-07-23T17:49:40;6.93;;;2.00;;
70369;SDS011;57790;51.356;-2.906;2022-07-23T17:52:44;6.50;;;2.10;;
70369;SDS011;57790;51.356;-2.906;2022-07-23T17:55:49;6.73;;;2.00;;
70369;SDS011;57790;51.356;-2.906;2022-07-23T17:58:50;6.17;;;1.87;;
70369;SDS011;57790;51.356;-2.906;2022-07-23T18:01:51;7.23;;;1.93;;
70369;SDS011;57790;51.356;-2.906;2022-07-23T18:04:52;7.80;;;1.90;;
70369;SDS011;57790;51.356;-2.906;2022-07-23T18:07:52;5.77;;;2.20;;
70369;SDS011;57790;51.356;-2.906;2022-07-23T18:10:53;6.17;;;2.00;;
70369;SDS011;57790;51.356;-2.906;2022-07-23T18:13:53;7.03;;;1.90;;
70369;SDS011;57790;51.356;-2.906;2022-07-23T18:16:53;7.20;;;1.90;;
70369;SDS011;57790;51.356;-2.906;2022-07-23T18:19:54;7.67;;;2.03;;
70369;SDS011;57790;51.356;-2.906;2022-07-23T18:22:54;5.80;;;1.80;;
70369;SDS011;57790;51.356;-2.906;2022-07-23T18:25:54;6.23;;;2.07;;